neil on the web!

ADDS Results

0624 UTC 27 June 2019

EGJB 270550Z 06022G35KT 2500 BR BKN002 14/14 Q1022
EGJB 270520Z 06016G29KT 2500 BR BKN002 14/14 Q1023
EGJB 270450Z 06017KT 2000 BR BKN002 14/14 Q1022
TAF EGJB 270502Z 2706/2715 06020KT 6000 BKN005
TEMPO 2706/2715 06025G35KT
TEMPO 2706/2712 2000 BR BKN002
PROB30
TEMPO 2706/2710 9999 SCT005
BECMG 2710/2713 9999 FEW005
EGJJ 270550Z 07023G33KT 3500 BR FEW002 BKN003 15/15 Q1021
EGJJ 270520Z 07024G34KT 3500 BR SCT002 BKN003 15/15 Q1021
EGJJ 270450Z 07024G34KT 4000 BR FEW002 BKN003 15/15 Q1021
TAF EGJJ 270502Z 2706/2715 06020KT 6000 BKN005
TEMPO 2706/2715 06025G35KT
TEMPO 2706/2709 2000 BR BKN002
PROB30
TEMPO 2706/2708 9999 SCT005
BECMG 2708/2711 9999 FEW005
EGKK 270550Z 05015KT 9999 BKN013 14/12 Q1028
EGKK 270520Z 05013KT 9999 BKN011 14/12 Q1028
EGKK 270450Z 05013KT 9999 BKN011 14/12 Q1028
TAF EGKK 270502Z 2706/2812 05012KT 9999 BKN010
BECMG 2707/2710 CAVOK
PROB30
TEMPO 2713/2720 06015G25KT
PROB40
TEMPO 2721/2807 BKN012
EGSS 270550Z AUTO 05011KT 9999 BKN011 12/10 Q1030
EGSS 270520Z AUTO 05011KT 9999 OVC011 12/10 Q1030
EGSS 270450Z AUTO 05012KT 9999 OVC011 12/10 Q1030
TAF EGSS 270456Z 2706/2812 06012KT 9999 OVC011
BECMG 2707/2710 CAVOK
BECMG 2720/2723 OVC010
TEMPO 2721/2806 OVC008
BECMG 2807/2810 CAVOK
EGGW 270550Z AUTO 05012KT 9999 OVC008 11/10 Q1030
EGGW 270520Z AUTO 05011KT 010V080 9999 OVC008 11/10 Q1030
EGGW 270450Z AUTO 06010KT 9999 OVC009 11/10 Q1030
TAF EGGW 270456Z 2706/2806 06013KT 9999 OVC009
BECMG 2706/2708 BKN012
BECMG 2708/2710 CAVOK
BECMG 2721/2724 OVC008
EGSH 270550Z 04011KT 360V070 9999 BKN015 13/10 Q1032 NOSIG
EGSH 270520Z 03009KT 9999 BKN016 13/10 Q1031 NOSIG
EGSH 270450Z 03008KT 010V070 9999 BKN016 12/10 Q1031 NOSIG
TAF EGSH 270500Z 2706/2715 05011KT 9999 SCT018
EGLC 270550Z AUTO 06010KT 9999 OVC015 14/11 Q1030
EGLC 270520Z AUTO 06010KT 9999 OVC014 14/11 Q1030
EGLC 270450Z AUTO 05011KT 010V070 9999 OVC013 14/11 Q1030
TAF AMD EGLC 270559Z 2706/2715 06012KT 9999 BKN015
BECMG 2707/2710 CAVOK
PROB30
TEMPO 2713/2715 06015G25KT
EGMC 270550Z 04009KT 9999 BKN015 13/10 Q1030
EGMC 270520Z 04008KT 9999 BKN015 13/10 Q1030
EGMC 270450Z 03010KT 9999 BKN015 13/10 Q1029
TAF EGMC 270506Z 2706/2715 05010KT 9999 BKN016
PROB40
TEMPO 2706/2709 BKN014
PROB30
TEMPO 2706/2715 05015G25KT
EGLL 270550Z AUTO 06010KT 9999 BKN015 13/10 Q1030
EGLL 270520Z AUTO 06009KT 9999 BKN014 13/10 Q1030 TEMPO BKN016
EGLL 270450Z AUTO 07010KT 030V090 9999 OVC013 13/10 Q1029 NOSIG
TAF EGLL 270452Z 2706/2812 06012KT 9999 BKN012
BECMG 2706/2709 CAVOK
PROB30
TEMPO 2712/2719 08015G25KT
BECMG 2721/2724 BKN016
TEMPO 2722/2808 BKN012
BECMG 2808/2811 CAVOK
EGHI 270550Z 04012KT 010V070 9999 FEW016 13/09 Q1027
EGHI 270520Z 04009KT 010V080 9999 FEW016 13/10 Q1027
EGHI 270450Z 04009KT 010V080 9999 FEW016 13/09 Q1027
TAF EGHI 270525Z 2706/2715 06012KT CAVOK
EGHH 270550Z 05012KT CAVOK 14/11 Q1026
EGHH 270520Z 05012KT CAVOK 14/11 Q1026
EGHH 270450Z 04012KT CAVOK 14/11 Q1026
TAF EGHH 270525Z 2706/2715 07013KT CAVOK
EGCC 270550Z AUTO 06004KT 9999 NCD 12/09 Q1031 NOSIG
EGCC 270520Z AUTO VRB02KT 9999 NCD 11/08 Q1031 NOSIG
EGCC 270450Z AUTO 06002KT 9999 NCD 10/08 Q1031 NOSIG
TAF EGCC 270500Z 2706/2812 10006KT CAVOK
PROB30
TEMPO 2706/2708 BKN013
PROB40
TEMPO 2801/2808 BKN010
EGNX 270550Z 05010KT 9999 BKN010 11/09 Q1031
EGNX 270520Z 05009KT 9999 OVC010 10/09 Q1031
EGNX 270450Z 05009KT 9999 OVC010 10/09 Q1031
TAF EGNX 270500Z 2706/2806 06011KT 9999 OVC010
BECMG 2707/2710 CAVOK
BECMG 2721/2724 OVC008
EGGP 270550Z VRB03KT CAVOK 13/10 Q1032
EGGP 270520Z VRB02KT CAVOK 12/11 Q1032
EGGP 270450Z 09005KT CAVOK 11/10 Q1031
TAF EGGP 270500Z 2706/2806 10008KT CAVOK
PROB30
TEMPO 2706/2708 BKN014
TEMPO 2801/2806 BKN010
EGNM 270550Z VRB03KT 9999 FEW009 10/08 Q1032
EGNM 270520Z VRB02KT CAVOK 10/08 Q1032
EGNM 270450Z VRB02KT CAVOK 09/08 Q1032
TAF EGNM 270456Z 2706/2806 VRB03KT 9999 FEW008
PROB40
TEMPO 2706/2710 BKN008
BECMG 2709/2712 08010KT
BECMG 2721/2724 OVC004
PROB40
TEMPO 2800/2806 2000 BR OVC001
EGBB 270550Z 06010KT 9999 BKN011 11/08 Q1031
EGBB 270520Z 06009KT 030V130 9999 BKN010 11/09 Q1031
EGBB 270450Z 05007KT 020V100 9999 BKN010 10/08 Q1031
TAF EGBB 270500Z 2706/2806 06010KT 9999 BKN010
BECMG 2707/2710 CAVOK
BECMG 2722/2801 OVC008
EGGD 270550Z AUTO 06016KT 9999 OVC008 11/09 Q1028
EGGD 270520Z AUTO 06019KT 9999 OVC006 11/09 Q1028
EGGD 270450Z AUTO 06016KT 9999 OVC006 11/10 Q1028
TAF EGGD 270456Z 2706/2806 06017KT 9999 OVC006
TEMPO 2706/2724 07020G30KT
PROB30
TEMPO 2706/2707 OVC004
BECMG 2707/2710 CAVOK
PROB40 2802/2806 OVC004
EGFF 270550Z AUTO 07018KT 9999 OVC010 12/10 Q1028
EGFF 270520Z AUTO 07016KT 9999 OVC010 12/10 Q1028
EGFF 270450Z AUTO 07015KT 9999 OVC011 12/10 Q1028
TAF EGFF 270500Z 2706/2806 07017KT 9999 OVC010
BECMG 2706/2709 CAVOK
TEMPO 2706/2806 07020G30KT
PROB30
TEMPO 2803/2806 BKN008
EGTE 270550Z 04010KT 9999 FEW020 14/12 Q1026
EGTE 270520Z 04010KT 010V070 9999 FEW020 14/12 Q1026
EGTE 270450Z 02006KT 350V050 9999 FEW020 13/11 Q1026
TAF EGTE 270525Z 2706/2715 06012KT CAVOK
EGPF 270550Z AUTO VRB01KT 9999 NCD 12/10 Q1033
EGPF 270520Z AUTO VRB01KT 9999 NCD 10/10 Q1033
EGPF 270450Z AUTO 26002KT 9999 NCD 09/09 Q1033
TAF EGPF 270455Z 2706/2806 VRB04KT 9999 FEW030
PROB30
TEMPO 2706/2708 7000
BECMG 2715/2718 08010KT
TEMPO 2800/2806 7000
PROB40
TEMPO 2802/2806 BKN008
EGPH 270550Z 27002KT CAVOK 11/11 Q1032
EGPH 270520Z 26002KT CAVOK 10/10 Q1032
EGPH 270450Z VRB01KT 9999 BCFG NSC 08/08 Q1032
TAF EGPH 270455Z 2706/2806 VRB04KT 9999 FEW010
TEMPO 2706/2710 7000
PROB30
TEMPO 2706/2707 4000 BR
BECMG 2707/2710 05010KT
PROB30
TEMPO 2721/2724 BKN008
BECMG 2800/2803 BKN008
TEMPO 2802/2806 7000 BKN004
EGPK 270550Z 11002KT CAVOK 12/11 Q1032
EGPK 270450Z 10003KT CAVOK 10/09 Q1032
TAF EGPK 270455Z 2706/2806 VRB03KT CAVOK
BECMG 2707/2710 27010KT
BECMG 2719/2722 04010KT
EHAM 270555Z 03011KT 360V060 9999 SCT019 15/10 Q1029 NOSIG
EHAM 270525Z 02008KT 350V070 9999 SCT020 15/11 Q1029 TEMPO BKN018
EHAM 270455Z 02009KT 350V050 9999 SCT020 14/11 Q1029 TEMPO BKN018
EHAM 270425Z 02008KT 320V050 9999 SCT019 14/11 Q1029 TEMPO BKN019
TAF EHAM 270510Z 2706/2812 02010KT 9999 SCT020
TEMPO 2706/2709 BKN017
PROB30 2722/2809 BKN014
BECMG 2802/2805 05008KT
LFLS 270600Z AUTO 08007KT CAVOK 23/19 Q1023 NOSIG
LFLS 270530Z AUTO 08007KT CAVOK 22/19 Q1023 NOSIG
LFLS 270500Z AUTO 08008KT CAVOK 21/18 Q1023 NOSIG
LFLS 270430Z AUTO 08008KT CAVOK 19/17 Q1023 NOSIG
TAF LFLS 270200Z 2703/2803 09006KT CAVOK
TEMPO 2715/2719 36005KT
LFLL 270600Z 00000KT CAVOK 25/20 Q1022 NOSIG
LFLL 270530Z VRB02KT CAVOK 24/20 Q1022 NOSIG
LFLL 270500Z VRB02KT CAVOK 24/19 Q1022 NOSIG
LFLL 270430Z 14002KT CAVOK 24/19 Q1021 NOSIG
TAF LFLL 270500Z 2706/2812 16006KT CAVOK
BECMG 2713/2716 36008KT
LFLC 270600Z AUTO VRB01KT CAVOK 24/14 Q1021 NOSIG
LFLC 270530Z AUTO 21005KT CAVOK 21/14 Q1021 NOSIG
LFLC 270500Z AUTO 12004KT 070V190 CAVOK 21/12 Q1021 NOSIG
LFLC 270430Z AUTO VRB03KT CAVOK 20/11 Q1021 NOSIG
TAF LFLC 270200Z 2703/2803 VRB03KT CAVOK
TEMPO 2712/2719 02010KT
LFRD 270600Z AUTO 06006KT 8000 NSC 19/17 Q1021 NOSIG
LFRD 270530Z AUTO 06005KT 020V080 7000 NSC 18/17 Q1021 NOSIG
LFRD 270500Z AUTO 06005KT 020V080 6000 NSC 18/16 Q1021 NOSIG
LFRD 270430Z AUTO 06009KT 6000 NSC 17/16 Q1020 TEMPO BKN007
TAF LFRD 270500Z 2706/2806 06010KT CAVOK
TEMPO 2706/2708 5000 BR
LFRC 270600Z AUTO 08016KT 6000 OVC004 14/14 Q1025 BECMG 06020G30KT 2000 BR
LFRC 270530Z AUTO 08020KT 4800 BR OVC003 14/14 Q1024 BECMG 06020G30KT 2000 BR
LFRC 270500Z AUTO 08018KT 3000 BR OVC002 14/14 Q1024
LFRC 270430Z AUTO 08018G30KT 050V110 2700 BR OVC002 14/14 Q1024
TAF LFRC 270500Z 2706/2715 06020G30KT 2000 BR OVC002
BECMG 2709/2711 06025G35KT CAVOK
VHHH 270600Z 21010KT 150V240 9999 FEW011 SCT025 33/26 Q1000 NOSIG
VHHH 270530Z 21011KT 170V240 9999 FEW011 SCT025 33/26 Q1001 NOSIG
VHHH 270500Z 23012KT 170V250 9999 FEW011 SCT025 33/26 Q1001 NOSIG
VHHH 270430Z 21010KT 180V250 9999 FEW011 SCT025 33/26 Q1002 NOSIG
TAF VHHH 270500Z 2706/2812 19010KT 9999 FEW020 SCT030 TX33/2706Z TX33/2806Z
TN28/2722Z
TEMPO 2706/2712 26010KT 3000 -TSRA SHRA FEW010CB SCT020 BKN040
TEMPO 2712/2721 VRB05KT
TEMPO 2721/2803 26010KT 3000 -TSRA SHRA FEW010CB SCT020 BKN040